sensor_id;sensor_type;location;lat;lon;timestamp;P1;durP1;ratioP1;P2;durP2;ratioP2
17151;SDS011;8691;50.828;4.700;2022-08-19T00:01:50;10.53;;;9.73;;
17151;SDS011;8691;50.828;4.700;2022-08-19T00:04:17;11.77;;;10.87;;
17151;SDS011;8691;50.828;4.700;2022-08-19T00:06:44;11.10;;;10.03;;
17151;SDS011;8691;50.828;4.700;2022-08-19T00:09:10;11.60;;;10.50;;
17151;SDS011;8691;50.828;4.700;2022-08-19T00:11:37;12.27;;;11.18;;
17151;SDS011;8691;50.828;4.700;2022-08-19T00:14:04;12.57;;;11.57;;
17151;SDS011;8691;50.828;4.700;2022-08-19T00:16:30;12.45;;;11.45;;
17151;SDS011;8691;50.828;4.700;2022-08-19T00:18:58;12.27;;;11.27;;
17151;SDS011;8691;50.828;4.700;2022-08-19T00:21:25;12.30;;;11.40;;
17151;SDS011;8691;50.828;4.700;2022-08-19T00:23:52;11.57;;;10.73;;
17151;SDS011;8691;50.828;4.700;2022-08-19T00:26:19;11.95;;;11.05;;
17151;SDS011;8691;50.828;4.700;2022-08-19T00:28:45;12.70;;;11.70;;
17151;SDS011;8691;50.828;4.700;2022-08-19T00:31:12;13.60;;;12.55;;
17151;SDS011;8691;50.828;4.700;2022-08-19T00:33:40;14.50;;;13.20;;
17151;SDS011;8691;50.828;4.700;2022-08-19T00:36:07;13.53;;;12.37;;
17151;SDS011;8691;50.828;4.700;2022-08-19T00:38:35;13.32;;;12.32;;
17151;SDS011;8691;50.828;4.700;2022-08-19T00:41:02;13.87;;;12.87;;
17151;SDS011;8691;50.828;4.700;2022-08-19T00:43:29;14.67;;;13.47;;
17151;SDS011;8691;50.828;4.700;2022-08-19T00:45:56;13.97;;;12.77;;
17151;SDS011;8691;50.828;4.700;2022-08-19T00:48:22;14.88;;;13.65;;
17151;SDS011;8691;50.828;4.700;2022-08-19T00:50:50;13.40;;;12.30;;
17151;SDS011;8691;50.828;4.700;2022-08-19T00:53:18;14.75;;;13.55;;
17151;SDS011;8691;50.828;4.700;2022-08-19T00:55:46;15.77;;;14.52;;
17151;SDS011;8691;50.828;4.700;2022-08-19T00:58:12;13.87;;;12.67;;
17151;SDS011;8691;50.828;4.700;2022-08-19T01:00:38;15.38;;;14.18;;
17151;SDS011;8691;50.828;4.700;2022-08-19T01:03:06;17.05;;;15.62;;
17151;SDS011;8691;50.828;4.700;2022-08-19T01:05:32;21.42;;;19.42;;
17151;SDS011;8691;50.828;4.700;2022-08-19T01:07:59;26.80;;;24.50;;
17151;SDS011;8691;50.828;4.700;2022-08-19T01:10:27;29.27;;;26.48;;
17151;SDS011;8691;50.828;4.700;2022-08-19T01:12:53;26.50;;;23.88;;
17151;SDS011;8691;50.828;4.700;2022-08-19T01:15:21;25.00;;;22.80;;
17151;SDS011;8691;50.828;4.700;2022-08-19T01:17:46;24.65;;;22.50;;
17151;SDS011;8691;50.828;4.700;2022-08-19T01:20:14;24.83;;;22.63;;
17151;SDS011;8691;50.828;4.700;2022-08-19T01:22:48;23.07;;;20.83;;
17151;SDS011;8691;50.828;4.700;2022-08-19T01:25:14;26.90;;;24.40;;
17151;SDS011;8691;50.828;4.700;2022-08-19T01:27:42;26.88;;;24.42;;
17151;SDS011;8691;50.828;4.700;2022-08-19T01:30:08;28.02;;;25.42;;
17151;SDS011;8691;50.828;4.700;2022-08-19T01:32:35;28.20;;;25.60;;
17151;SDS011;8691;50.828;4.700;2022-08-19T01:35:03;24.70;;;22.47;;
17151;SDS011;8691;50.828;4.700;2022-08-19T01:37:29;25.25;;;22.95;;
17151;SDS011;8691;50.828;4.700;2022-08-19T01:39:56;27.03;;;24.53;;
17151;SDS011;8691;50.828;4.700;2022-08-19T01:42:23;25.45;;;23.15;;
17151;SDS011;8691;50.828;4.700;2022-08-19T01:44:49;21.73;;;19.73;;
17151;SDS011;8691;50.828;4.700;2022-08-19T01:47:16;22.88;;;20.77;;
17151;SDS011;8691;50.828;4.700;2022-08-19T01:49:44;21.07;;;19.07;;
17151;SDS011;8691;50.828;4.700;2022-08-19T01:52:11;21.25;;;19.35;;
17151;SDS011;8691;50.828;4.700;2022-08-19T01:54:37;20.93;;;19.03;;
17151;SDS011;8691;50.828;4.700;2022-08-19T01:57:07;20.35;;;18.55;;
17151;SDS011;8691;50.828;4.700;2022-08-19T01:59:32;20.13;;;18.43;;
17151;SDS011;8691;50.828;4.700;2022-08-19T02:02:00;20.92;;;19.00;;
17151;SDS011;8691;50.828;4.700;2022-08-19T02:04:27;20.02;;;18.33;;
17151;SDS011;8691;50.828;4.700;2022-08-19T02:06:54;20.70;;;18.90;;
17151;SDS011;8691;50.828;4.700;2022-08-19T02:09:20;17.53;;;15.83;;
17151;SDS011;8691;50.828;4.700;2022-08-19T02:11:47;20.00;;;18.30;;
17151;SDS011;8691;50.828;4.700;2022-08-19T02:14:14;19.98;;;18.27;;
17151;SDS011;8691;50.828;4.700;2022-08-19T02:16:41;21.60;;;19.83;;
17151;SDS011;8691;50.828;4.700;2022-08-19T02:19:09;21.40;;;19.40;;
17151;SDS011;8691;50.828;4.700;2022-08-19T02:21:37;24.88;;;22.70;;
17151;SDS011;8691;50.828;4.700;2022-08-19T02:24:05;26.37;;;23.97;;
17151;SDS011;8691;50.828;4.700;2022-08-19T02:26:32;27.27;;;24.70;;
17151;SDS011;8691;50.828;4.700;2022-08-19T02:28:59;24.37;;;22.20;;
17151;SDS011;8691;50.828;4.700;2022-08-19T02:31:26;23.45;;;21.35;;
17151;SDS011;8691;50.828;4.700;2022-08-19T02:33:54;23.83;;;21.65;;
17151;SDS011;8691;50.828;4.700;2022-08-19T02:36:22;27.67;;;25.07;;
17151;SDS011;8691;50.828;4.700;2022-08-19T02:38:48;20.53;;;18.63;;
17151;SDS011;8691;50.828;4.700;2022-08-19T02:41:19;25.75;;;23.35;;
17151;SDS011;8691;50.828;4.700;2022-08-19T02:43:42;24.70;;;22.60;;
17151;SDS011;8691;50.828;4.700;2022-08-19T02:46:19;26.33;;;23.83;;
17151;SDS011;8691;50.828;4.700;2022-08-19T02:48:41;27.47;;;24.97;;
17151;SDS011;8691;50.828;4.700;2022-08-19T02:51:08;27.15;;;24.65;;
17151;SDS011;8691;50.828;4.700;2022-08-19T02:53:35;28.23;;;25.62;;
17151;SDS011;8691;50.828;4.700;2022-08-19T02:56:05;27.12;;;24.73;;
17151;SDS011;8691;50.828;4.700;2022-08-19T02:58:29;27.67;;;24.90;;
17151;SDS011;8691;50.828;4.700;2022-08-19T03:00:56;24.10;;;21.63;;
17151;SDS011;8691;50.828;4.700;2022-08-19T03:03:23;27.50;;;24.90;;
17151;SDS011;8691;50.828;4.700;2022-08-19T03:05:50;26.52;;;24.12;;
17151;SDS011;8691;50.828;4.700;2022-08-19T03:08:18;27.17;;;24.63;;
17151;SDS011;8691;50.828;4.700;2022-08-19T03:10:46;27.33;;;24.63;;
17151;SDS011;8691;50.828;4.700;2022-08-19T03:13:13;28.48;;;25.75;;
17151;SDS011;8691;50.828;4.700;2022-08-19T03:15:40;30.35;;;27.35;;
17151;SDS011;8691;50.828;4.700;2022-08-19T03:18:06;31.50;;;28.30;;
17151;SDS011;8691;50.828;4.700;2022-08-19T03:20:33;32.35;;;29.10;;
17151;SDS011;8691;50.828;4.700;2022-08-19T03:23:00;32.45;;;29.35;;
17151;SDS011;8691;50.828;4.700;2022-08-19T03:25:27;34.03;;;30.62;;
17151;SDS011;8691;50.828;4.700;2022-08-19T03:27:54;34.62;;;31.23;;
17151;SDS011;8691;50.828;4.700;2022-08-19T03:30:21;33.40;;;30.10;;
17151;SDS011;8691;50.828;4.700;2022-08-19T03:32:48;34.20;;;30.80;;
17151;SDS011;8691;50.828;4.700;2022-08-19T03:35:15;32.92;;;29.58;;
17151;SDS011;8691;50.828;4.700;2022-08-19T03:37:43;35.43;;;31.80;;
17151;SDS011;8691;50.828;4.700;2022-08-19T03:40:11;33.90;;;30.52;;
17151;SDS011;8691;50.828;4.700;2022-08-19T03:42:37;30.40;;;27.20;;
17151;SDS011;8691;50.828;4.700;2022-08-19T03:45:04;34.80;;;31.20;;
17151;SDS011;8691;50.828;4.700;2022-08-19T03:47:32;33.72;;;30.30;;
17151;SDS011;8691;50.828;4.700;2022-08-19T03:49:59;33.28;;;29.88;;
17151;SDS011;8691;50.828;4.700;2022-08-19T03:52:26;34.25;;;30.77;;
17151;SDS011;8691;50.828;4.700;2022-08-19T03:54:54;32.72;;;29.45;;
17151;SDS011;8691;50.828;4.700;2022-08-19T03:57:21;32.47;;;29.27;;
17151;SDS011;8691;50.828;4.700;2022-08-19T03:59:49;34.27;;;30.67;;
17151;SDS011;8691;50.828;4.700;2022-08-19T04:02:16;34.57;;;31.17;;
17151;SDS011;8691;50.828;4.700;2022-08-19T04:04:43;33.90;;;30.53;;
17151;SDS011;8691;50.828;4.700;2022-08-19T04:07:10;33.35;;;30.15;;
17151;SDS011;8691;50.828;4.700;2022-08-19T04:09:36;32.22;;;29.12;;
17151;SDS011;8691;50.828;4.700;2022-08-19T04:12:03;32.47;;;29.17;;
17151;SDS011;8691;50.828;4.700;2022-08-19T04:14:30;34.62;;;31.17;;
17151;SDS011;8691;50.828;4.700;2022-08-19T04:16:57;30.20;;;27.07;;
17151;SDS011;8691;50.828;4.700;2022-08-19T04:19:24;33.20;;;29.92;;
17151;SDS011;8691;50.828;4.700;2022-08-19T04:21:51;33.95;;;30.55;;
17151;SDS011;8691;50.828;4.700;2022-08-19T04:24:18;34.17;;;30.67;;
17151;SDS011;8691;50.828;4.700;2022-08-19T04:26:44;34.43;;;31.00;;
17151;SDS011;8691;50.828;4.700;2022-08-19T04:29:30;34.53;;;31.02;;
17151;SDS011;8691;50.828;4.700;2022-08-19T04:31:42;31.07;;;27.77;;
17151;SDS011;8691;50.828;4.700;2022-08-19T04:34:08;34.28;;;30.75;;
17151;SDS011;8691;50.828;4.700;2022-08-19T04:36:35;33.47;;;30.10;;
17151;SDS011;8691;50.828;4.700;2022-08-19T04:39:06;33.97;;;30.50;;
17151;SDS011;8691;50.828;4.700;2022-08-19T04:41:34;32.73;;;29.53;;
17151;SDS011;8691;50.828;4.700;2022-08-19T04:44:19;33.53;;;30.13;;
17151;SDS011;8691;50.828;4.700;2022-08-19T04:46:47;27.43;;;24.53;;
17151;SDS011;8691;50.828;4.700;2022-08-19T04:49:18;33.33;;;30.00;;
17151;SDS011;8691;50.828;4.700;2022-08-19T04:51:45;32.27;;;29.07;;
17151;SDS011;8691;50.828;4.700;2022-08-19T04:54:11;32.33;;;29.17;;
17151;SDS011;8691;50.828;4.700;2022-08-19T04:56:38;31.87;;;28.70;;
17151;SDS011;8691;50.828;4.700;2022-08-19T04:59:05;32.70;;;29.20;;
17151;SDS011;8691;50.828;4.700;2022-08-19T05:01:32;31.75;;;28.45;;
17151;SDS011;8691;50.828;4.700;2022-08-19T05:03:59;30.77;;;27.73;;
17151;SDS011;8691;50.828;4.700;2022-08-19T05:06:25;31.65;;;28.45;;
17151;SDS011;8691;50.828;4.700;2022-08-19T05:08:52;31.92;;;28.73;;
17151;SDS011;8691;50.828;4.700;2022-08-19T05:11:20;31.20;;;27.98;;
17151;SDS011;8691;50.828;4.700;2022-08-19T05:13:46;31.52;;;28.42;;
17151;SDS011;8691;50.828;4.700;2022-08-19T05:16:13;31.42;;;28.17;;
17151;SDS011;8691;50.828;4.700;2022-08-19T05:18:40;32.03;;;27.90;;
17151;SDS011;8691;50.828;4.700;2022-08-19T05:21:25;28.30;;;25.30;;
17151;SDS011;8691;50.828;4.700;2022-08-19T05:24:09;30.53;;;25.17;;
17151;SDS011;8691;50.828;4.700;2022-08-19T05:26:37;32.00;;;28.58;;
17151;SDS011;8691;50.828;4.700;2022-08-19T05:29:03;33.67;;;30.17;;
17151;SDS011;8691;50.828;4.700;2022-08-19T05:31:30;33.05;;;29.55;;
17151;SDS011;8691;50.828;4.700;2022-08-19T05:33:57;33.97;;;28.97;;
17151;SDS011;8691;50.828;4.700;2022-08-19T05:36:27;33.07;;;29.57;;
17151;SDS011;8691;50.828;4.700;2022-08-19T05:38:50;34.53;;;26.70;;
17151;SDS011;8691;50.828;4.700;2022-08-19T05:41:17;33.92;;;28.77;;
17151;SDS011;8691;50.828;4.700;2022-08-19T05:43:44;32.28;;;28.77;;
17151;SDS011;8691;50.828;4.700;2022-08-19T05:46:18;32.90;;;29.40;;
17151;SDS011;8691;50.828;4.700;2022-08-19T05:48:44;31.55;;;28.35;;
17151;SDS011;8691;50.828;4.700;2022-08-19T05:51:11;31.93;;;28.47;;
17151;SDS011;8691;50.828;4.700;2022-08-19T05:53:38;27.10;;;23.80;;
17151;SDS011;8691;50.828;4.700;2022-08-19T05:56:05;29.33;;;26.20;;
17151;SDS011;8691;50.828;4.700;2022-08-19T05:58:35;29.20;;;26.20;;
17151;SDS011;8691;50.828;4.700;2022-08-19T06:01:01;29.10;;;26.13;;
17151;SDS011;8691;50.828;4.700;2022-08-19T06:03:28;28.73;;;25.83;;
17151;SDS011;8691;50.828;4.700;2022-08-19T06:05:55;27.27;;;24.57;;
17151;SDS011;8691;50.828;4.700;2022-08-19T06:57:56;10.52;;;9.40;;
17151;SDS011;8691;50.828;4.700;2022-08-19T07:00:23;10.12;;;9.12;;
17151;SDS011;8691;50.828;4.700;2022-08-19T07:02:50;8.57;;;7.68;;
17151;SDS011;8691;50.828;4.700;2022-08-19T07:05:18;8.35;;;7.47;;
17151;SDS011;8691;50.828;4.700;2022-08-19T07:07:45;8.12;;;7.32;;
17151;SDS011;8691;50.828;4.700;2022-08-19T07:10:13;9.18;;;6.78;;
17151;SDS011;8691;50.828;4.700;2022-08-19T07:12:41;7.35;;;6.53;;
17151;SDS011;8691;50.828;4.700;2022-08-19T07:15:08;9.65;;;6.88;;
17151;SDS011;8691;50.828;4.700;2022-08-19T07:17:34;9.20;;;6.80;;
17151;SDS011;8691;50.828;4.700;2022-08-19T07:20:02;11.32;;;5.85;;
17151;SDS011;8691;50.828;4.700;2022-08-19T07:22:30;7.30;;;5.95;;
17151;SDS011;8691;50.828;4.700;2022-08-19T07:24:57;6.57;;;5.50;;
17151;SDS011;8691;50.828;4.700;2022-08-19T07:27:24;5.68;;;5.05;;
17151;SDS011;8691;50.828;4.700;2022-08-19T07:29:54;7.80;;;4.45;;
17151;SDS011;8691;50.828;4.700;2022-08-19T07:32:18;7.10;;;5.30;;
17151;SDS011;8691;50.828;4.700;2022-08-19T07:34:46;6.57;;;4.97;;
17151;SDS011;8691;50.828;4.700;2022-08-19T07:37:13;6.40;;;4.38;;
17151;SDS011;8691;50.828;4.700;2022-08-19T07:39:41;5.78;;;4.47;;
17151;SDS011;8691;50.828;4.700;2022-08-19T07:42:09;7.90;;;4.50;;
17151;SDS011;8691;50.828;4.700;2022-08-19T07:44:35;7.13;;;4.60;;
17151;SDS011;8691;50.828;4.700;2022-08-19T07:47:02;6.40;;;4.30;;
17151;SDS011;8691;50.828;4.700;2022-08-19T07:49:29;5.40;;;3.90;;
17151;SDS011;8691;50.828;4.700;2022-08-19T07:52:04;5.18;;;4.22;;
17151;SDS011;8691;50.828;4.700;2022-08-19T07:54:31;6.20;;;3.75;;
17151;SDS011;8691;50.828;4.700;2022-08-19T07:56:57;7.07;;;3.42;;
17151;SDS011;8691;50.828;4.700;2022-08-19T07:59:24;4.55;;;3.15;;
17151;SDS011;8691;50.828;4.700;2022-08-19T08:01:51;4.43;;;2.80;;
17151;SDS011;8691;50.828;4.700;2022-08-19T08:04:18;4.37;;;3.23;;
17151;SDS011;8691;50.828;4.700;2022-08-19T08:07:03;3.67;;;2.83;;
17151;SDS011;8691;50.828;4.700;2022-08-19T08:09:48;3.90;;;2.83;;
17151;SDS011;8691;50.828;4.700;2022-08-19T08:12:16;3.88;;;2.60;;
17151;SDS011;8691;50.828;4.700;2022-08-19T08:14:43;4.57;;;2.20;;
17151;SDS011;8691;50.828;4.700;2022-08-19T08:17:18;4.57;;;2.40;;
17151;SDS011;8691;50.828;4.700;2022-08-19T08:19:45;4.20;;;2.33;;
17151;SDS011;8691;50.828;4.700;2022-08-19T08:22:14;4.65;;;2.55;;
17151;SDS011;8691;50.828;4.700;2022-08-19T08:24:39;4.82;;;3.08;;
17151;SDS011;8691;50.828;4.700;2022-08-19T08:27:06;4.27;;;2.97;;
17151;SDS011;8691;50.828;4.700;2022-08-19T08:29:33;4.97;;;3.00;;
17151;SDS011;8691;50.828;4.700;2022-08-19T08:32:00;7.07;;;3.50;;
17151;SDS011;8691;50.828;4.700;2022-08-19T08:34:27;6.50;;;3.25;;
17151;SDS011;8691;50.828;4.700;2022-08-19T08:36:54;5.97;;;3.53;;
17151;SDS011;8691;50.828;4.700;2022-08-19T08:39:21;4.70;;;3.30;;
17151;SDS011;8691;50.828;4.700;2022-08-19T08:45:19;5.57;;;4.23;;
17151;SDS011;8691;50.828;4.700;2022-08-19T08:47:09;16.33;;;14.93;;
17151;SDS011;8691;50.828;4.700;2022-08-19T08:52:05;4.57;;;3.57;;
17151;SDS011;8691;50.828;4.700;2022-08-19T08:54:36;6.10;;;4.70;;
17151;SDS011;8691;50.828;4.700;2022-08-19T08:57:02;4.25;;;2.95;;
17151;SDS011;8691;50.828;4.700;2022-08-19T08:59:30;6.10;;;3.12;;
17151;SDS011;8691;50.828;4.700;2022-08-19T09:01:56;3.60;;;2.90;;
17151;SDS011;8691;50.828;4.700;2022-08-19T09:04:24;4.00;;;2.95;;
17151;SDS011;8691;50.828;4.700;2022-08-19T09:06:54;3.72;;;2.95;;
17151;SDS011;8691;50.828;4.700;2022-08-19T09:09:32;3.20;;;2.80;;
17151;SDS011;8691;50.828;4.700;2022-08-19T09:14:39;4.72;;;4.10;;
17151;SDS011;8691;50.828;4.700;2022-08-19T09:17:07;3.38;;;2.80;;
17151;SDS011;8691;50.828;4.700;2022-08-19T09:19:34;4.12;;;2.25;;
17151;SDS011;8691;50.828;4.700;2022-08-19T09:22:03;5.07;;;3.17;;
17151;SDS011;8691;50.828;4.700;2022-08-19T09:24:30;4.68;;;3.00;;
17151;SDS011;8691;50.828;4.700;2022-08-19T09:26:57;10.03;;;9.00;;
17151;SDS011;8691;50.828;4.700;2022-08-19T09:29:24;6.03;;;5.40;;
17151;SDS011;8691;50.828;4.700;2022-08-19T09:31:51;27.05;;;22.50;;
17151;SDS011;8691;50.828;4.700;2022-08-19T09:34:18;4.60;;;3.97;;
17151;SDS011;8691;50.828;4.700;2022-08-19T09:36:45;4.45;;;2.83;;
17151;SDS011;8691;50.828;4.700;2022-08-19T09:39:12;4.12;;;3.00;;
17151;SDS011;8691;50.828;4.700;2022-08-19T09:41:40;5.43;;;2.83;;
17151;SDS011;8691;50.828;4.700;2022-08-19T09:44:07;4.72;;;3.00;;
17151;SDS011;8691;50.828;4.700;2022-08-19T09:46:34;2.88;;;2.22;;
17151;SDS011;8691;50.828;4.700;2022-08-19T09:49:01;3.87;;;2.60;;
17151;SDS011;8691;50.828;4.700;2022-08-19T09:51:28;4.12;;;3.10;;
17151;SDS011;8691;50.828;4.700;2022-08-19T09:53:58;3.95;;;2.20;;
17151;SDS011;8691;50.828;4.700;2022-08-19T09:56:23;4.80;;;2.08;;
17151;SDS011;8691;50.828;4.700;2022-08-19T09:58:51;4.90;;;1.80;;
17151;SDS011;8691;50.828;4.700;2022-08-19T10:01:20;2.53;;;2.00;;
17151;SDS011;8691;50.828;4.700;2022-08-19T10:03:50;2.72;;;1.70;;
17151;SDS011;8691;50.828;4.700;2022-08-19T10:06:13;2.87;;;2.00;;
17151;SDS011;8691;50.828;4.700;2022-08-19T10:08:40;3.62;;;2.00;;
17151;SDS011;8691;50.828;4.700;2022-08-19T10:11:07;3.25;;;2.20;;
17151;SDS011;8691;50.828;4.700;2022-08-19T10:13:35;3.58;;;2.50;;
17151;SDS011;8691;50.828;4.700;2022-08-19T10:16:06;3.57;;;2.50;;
17151;SDS011;8691;50.828;4.700;2022-08-19T10:18:31;4.25;;;2.75;;
17151;SDS011;8691;50.828;4.700;2022-08-19T10:21:03;4.75;;;2.88;;
17151;SDS011;8691;50.828;4.700;2022-08-19T10:23:30;2.75;;;2.45;;
17151;SDS011;8691;50.828;4.700;2022-08-19T10:25:59;3.17;;;2.67;;
17151;SDS011;8691;50.828;4.700;2022-08-19T10:28:24;3.83;;;2.33;;
17151;SDS011;8691;50.828;4.700;2022-08-19T10:30:50;4.87;;;3.20;;
17151;SDS011;8691;50.828;4.700;2022-08-19T10:33:17;3.80;;;3.22;;
17151;SDS011;8691;50.828;4.700;2022-08-19T10:35:44;4.32;;;2.90;;
17151;SDS011;8691;50.828;4.700;2022-08-19T10:38:12;4.70;;;3.10;;
17151;SDS011;8691;50.828;4.700;2022-08-19T10:40:39;3.63;;;2.93;;
17151;SDS011;8691;50.828;4.700;2022-08-19T10:43:05;3.40;;;2.80;;
17151;SDS011;8691;50.828;4.700;2022-08-19T10:45:33;3.88;;;2.70;;
17151;SDS011;8691;50.828;4.700;2022-08-19T10:48:00;4.03;;;2.90;;
17151;SDS011;8691;50.828;4.700;2022-08-19T10:50:27;3.55;;;2.80;;
17151;SDS011;8691;50.828;4.700;2022-08-19T10:53:13;3.05;;;2.65;;
17151;SDS011;8691;50.828;4.700;2022-08-19T10:55:40;5.20;;;2.60;;
17151;SDS011;8691;50.828;4.700;2022-08-19T10:58:25;4.10;;;2.73;;
17151;SDS011;8691;50.828;4.700;2022-08-19T11:00:56;4.62;;;2.67;;
17151;SDS011;8691;50.828;4.700;2022-08-19T11:03:18;3.37;;;2.60;;
17151;SDS011;8691;50.828;4.700;2022-08-19T11:05:46;2.67;;;2.10;;
17151;SDS011;8691;50.828;4.700;2022-08-19T11:08:13;4.50;;;2.78;;
17151;SDS011;8691;50.828;4.700;2022-08-19T11:10:42;3.60;;;2.60;;
17151;SDS011;8691;50.828;4.700;2022-08-19T11:13:09;2.42;;;1.98;;
17151;SDS011;8691;50.828;4.700;2022-08-19T11:15:37;3.62;;;2.28;;
17151;SDS011;8691;50.828;4.700;2022-08-19T11:18:04;2.28;;;2.00;;
17151;SDS011;8691;50.828;4.700;2022-08-19T11:20:31;2.73;;;2.23;;
17151;SDS011;8691;50.828;4.700;2022-08-19T11:22:58;3.03;;;2.47;;
17151;SDS011;8691;50.828;4.700;2022-08-19T11:25:25;2.45;;;2.20;;
17151;SDS011;8691;50.828;4.700;2022-08-19T11:27:52;3.50;;;2.43;;
17151;SDS011;8691;50.828;4.700;2022-08-19T11:30:20;4.85;;;3.10;;
17151;SDS011;8691;50.828;4.700;2022-08-19T11:32:47;2.88;;;2.58;;
17151;SDS011;8691;50.828;4.700;2022-08-19T11:35:15;2.95;;;2.70;;
17151;SDS011;8691;50.828;4.700;2022-08-19T11:37:42;3.03;;;2.70;;
17151;SDS011;8691;50.828;4.700;2022-08-19T11:40:10;3.08;;;2.78;;
17151;SDS011;8691;50.828;4.700;2022-08-19T11:42:37;2.83;;;2.33;;
17151;SDS011;8691;50.828;4.700;2022-08-19T11:45:22;3.00;;;2.70;;
17151;SDS011;8691;50.828;4.700;2022-08-19T11:47:49;3.60;;;3.10;;
17151;SDS011;8691;50.828;4.700;2022-08-19T11:50:16;3.20;;;2.90;;
17151;SDS011;8691;50.828;4.700;2022-08-19T11:52:43;3.85;;;3.47;;
17151;SDS011;8691;50.828;4.700;2022-08-19T11:55:09;4.57;;;3.83;;
17151;SDS011;8691;50.828;4.700;2022-08-19T11:57:36;4.73;;;4.27;;
17151;SDS011;8691;50.828;4.700;2022-08-19T12:00:03;4.40;;;3.73;;
17151;SDS011;8691;50.828;4.700;2022-08-19T12:02:29;4.43;;;4.03;;
17151;SDS011;8691;50.828;4.700;2022-08-19T12:04:57;5.50;;;4.20;;
17151;SDS011;8691;50.828;4.700;2022-08-19T12:07:23;5.40;;;4.50;;
17151;SDS011;8691;50.828;4.700;2022-08-19T12:09:51;5.87;;;4.50;;
17151;SDS011;8691;50.828;4.700;2022-08-19T12:12:17;6.17;;;4.30;;
17151;SDS011;8691;50.828;4.700;2022-08-19T12:14:45;5.47;;;4.97;;
17151;SDS011;8691;50.828;4.700;2022-08-19T12:17:11;5.27;;;4.57;;
17151;SDS011;8691;50.828;4.700;2022-08-19T12:19:39;6.47;;;5.70;;
17151;SDS011;8691;50.828;4.700;2022-08-19T12:22:05;5.90;;;5.33;;
17151;SDS011;8691;50.828;4.700;2022-08-19T12:24:33;5.07;;;4.63;;
17151;SDS011;8691;50.828;4.700;2022-08-19T12:26:59;6.90;;;5.40;;
17151;SDS011;8691;50.828;4.700;2022-08-19T12:29:27;6.10;;;5.50;;
17151;SDS011;8691;50.828;4.700;2022-08-19T12:31:53;6.03;;;5.10;;
17151;SDS011;8691;50.828;4.700;2022-08-19T12:34:21;6.13;;;5.63;;
17151;SDS011;8691;50.828;4.700;2022-08-19T12:36:48;5.70;;;5.20;;
17151;SDS011;8691;50.828;4.700;2022-08-19T12:39:15;5.43;;;4.93;;
17151;SDS011;8691;50.828;4.700;2022-08-19T12:41:42;4.73;;;4.30;;
17151;SDS011;8691;50.828;4.700;2022-08-19T12:44:09;4.80;;;4.40;;
17151;SDS011;8691;50.828;4.700;2022-08-19T12:46:36;4.43;;;4.00;;
17151;SDS011;8691;50.828;4.700;2022-08-19T12:49:02;5.35;;;4.10;;
17151;SDS011;8691;50.828;4.700;2022-08-19T12:51:30;3.15;;;2.95;;
17151;SDS011;8691;50.828;4.700;2022-08-19T12:53:58;3.70;;;3.40;;
17151;SDS011;8691;50.828;4.700;2022-08-19T12:56:25;3.83;;;3.10;;
17151;SDS011;8691;50.828;4.700;2022-08-19T12:58:53;3.72;;;3.40;;
17151;SDS011;8691;50.828;4.700;2022-08-19T13:01:20;3.97;;;3.42;;
17151;SDS011;8691;50.828;4.700;2022-08-19T13:03:47;3.70;;;3.40;;
17151;SDS011;8691;50.828;4.700;2022-08-19T13:06:15;3.42;;;2.97;;
17151;SDS011;8691;50.828;4.700;2022-08-19T13:08:42;3.00;;;2.80;;
17151;SDS011;8691;50.828;4.700;2022-08-19T13:11:12;2.72;;;2.53;;
17151;SDS011;8691;50.828;4.700;2022-08-19T13:13:42;3.55;;;3.10;;
17151;SDS011;8691;50.828;4.700;2022-08-19T13:16:09;3.60;;;2.70;;
17151;SDS011;8691;50.828;4.700;2022-08-19T13:18:35;2.70;;;2.50;;
17151;SDS011;8691;50.828;4.700;2022-08-19T13:21:03;3.17;;;2.45;;
17151;SDS011;8691;50.828;4.700;2022-08-19T13:23:33;3.83;;;2.50;;
17151;SDS011;8691;50.828;4.700;2022-08-19T13:26:00;2.62;;;2.12;;
17151;SDS011;8691;50.828;4.700;2022-08-19T13:28:28;2.78;;;2.30;;
17151;SDS011;8691;50.828;4.700;2022-08-19T13:30:55;3.00;;;2.45;;
17151;SDS011;8691;50.828;4.700;2022-08-19T13:33:40;2.78;;;2.40;;
17151;SDS011;8691;50.828;4.700;2022-08-19T13:36:08;2.40;;;2.00;;
17151;SDS011;8691;50.828;4.700;2022-08-19T13:38:35;2.88;;;2.10;;
17151;SDS011;8691;50.828;4.700;2022-08-19T13:41:04;2.42;;;2.22;;
17151;SDS011;8691;50.828;4.700;2022-08-19T13:43:31;3.25;;;1.90;;
17151;SDS011;8691;50.828;4.700;2022-08-19T13:45:57;2.67;;;1.60;;
17151;SDS011;8691;50.828;4.700;2022-08-19T13:48:25;2.35;;;1.62;;
17151;SDS011;8691;50.828;4.700;2022-08-19T13:50:52;4.05;;;1.40;;
17151;SDS011;8691;50.828;4.700;2022-08-19T13:53:19;2.00;;;1.67;;
17151;SDS011;8691;50.828;4.700;2022-08-19T13:55:46;3.43;;;1.50;;
17151;SDS011;8691;50.828;4.700;2022-08-19T13:58:13;1.45;;;1.20;;
17151;SDS011;8691;50.828;4.700;2022-08-19T14:00:42;2.17;;;1.27;;
17151;SDS011;8691;50.828;4.700;2022-08-19T14:03:07;2.35;;;1.30;;
17151;SDS011;8691;50.828;4.700;2022-08-19T14:05:34;2.03;;;1.33;;
17151;SDS011;8691;50.828;4.700;2022-08-19T14:08:02;3.20;;;1.20;;
17151;SDS011;8691;50.828;4.700;2022-08-19T14:10:28;4.37;;;2.30;;
17151;SDS011;8691;50.828;4.700;2022-08-19T14:12:56;2.10;;;1.30;;
17151;SDS011;8691;50.828;4.700;2022-08-19T14:15:22;2.07;;;1.30;;
17151;SDS011;8691;50.828;4.700;2022-08-19T14:17:49;1.17;;;1.00;;
17151;SDS011;8691;50.828;4.700;2022-08-19T14:20:16;1.27;;;1.10;;
17151;SDS011;8691;50.828;4.700;2022-08-19T14:22:43;1.37;;;1.00;;
17151;SDS011;8691;50.828;4.700;2022-08-19T14:25:11;1.27;;;1.00;;
17151;SDS011;8691;50.828;4.700;2022-08-19T14:27:38;1.40;;;0.90;;
17151;SDS011;8691;50.828;4.700;2022-08-19T14:30:06;3.75;;;2.78;;
17151;SDS011;8691;50.828;4.700;2022-08-19T14:32:33;5.68;;;2.25;;
17151;SDS011;8691;50.828;4.700;2022-08-19T14:35:00;3.42;;;2.70;;
17151;SDS011;8691;50.828;4.700;2022-08-19T14:37:27;3.35;;;1.77;;
17151;SDS011;8691;50.828;4.700;2022-08-19T14:39:54;3.90;;;1.67;;
17151;SDS011;8691;50.828;4.700;2022-08-19T14:42:21;2.20;;;1.35;;
17151;SDS011;8691;50.828;4.700;2022-08-19T14:44:49;3.20;;;1.30;;
17151;SDS011;8691;50.828;4.700;2022-08-19T14:47:16;1.83;;;0.98;;
17151;SDS011;8691;50.828;4.700;2022-08-19T14:49:43;4.17;;;0.93;;
17151;SDS011;8691;50.828;4.700;2022-08-19T14:52:09;2.78;;;0.93;;
17151;SDS011;8691;50.828;4.700;2022-08-19T14:54:37;12.00;;;5.82;;
17151;SDS011;8691;50.828;4.700;2022-08-19T14:57:03;8.77;;;5.43;;
17151;SDS011;8691;50.828;4.700;2022-08-19T14:59:30;3.70;;;2.08;;
17151;SDS011;8691;50.828;4.700;2022-08-19T15:01:57;1.87;;;1.10;;
17151;SDS011;8691;50.828;4.700;2022-08-19T15:04:25;2.83;;;1.10;;
17151;SDS011;8691;50.828;4.700;2022-08-19T15:06:52;2.03;;;0.88;;
17151;SDS011;8691;50.828;4.700;2022-08-19T15:09:18;3.17;;;1.00;;
17151;SDS011;8691;50.828;4.700;2022-08-19T15:11:45;2.77;;;1.00;;
17151;SDS011;8691;50.828;4.700;2022-08-19T15:14:12;1.80;;;1.30;;
17151;SDS011;8691;50.828;4.700;2022-08-19T15:16:39;1.73;;;0.70;;
17151;SDS011;8691;50.828;4.700;2022-08-19T15:19:06;0.70;;;0.50;;
17151;SDS011;8691;50.828;4.700;2022-08-19T15:21:33;0.67;;;0.60;;
17151;SDS011;8691;50.828;4.700;2022-08-19T15:24:00;1.97;;;0.70;;
17151;SDS011;8691;50.828;4.700;2022-08-19T15:26:27;1.60;;;0.50;;
17151;SDS011;8691;50.828;4.700;2022-08-19T15:28:54;1.13;;;0.30;;
17151;SDS011;8691;50.828;4.700;2022-08-19T15:31:21;0.53;;;0.40;;
17151;SDS011;8691;50.828;4.700;2022-08-19T15:33:50;1.10;;;0.40;;
17151;SDS011;8691;50.828;4.700;2022-08-19T15:36:17;1.10;;;0.60;;
17151;SDS011;8691;50.828;4.700;2022-08-19T15:38:44;0.30;;;0.30;;
17151;SDS011;8691;50.828;4.700;2022-08-19T15:41:16;1.80;;;0.40;;
17151;SDS011;8691;50.828;4.700;2022-08-19T15:43:51;0.73;;;0.40;;
17151;SDS011;8691;50.828;4.700;2022-08-19T15:46:20;1.03;;;0.50;;
17151;SDS011;8691;50.828;4.700;2022-08-19T15:48:43;0.83;;;0.50;;
17151;SDS011;8691;50.828;4.700;2022-08-19T15:51:09;1.10;;;0.50;;